createdAt,value
2023-05-12T00:00:56.672Z,13.48
2023-05-12T00:01:58.556Z,13.47
2023-05-12T00:03:03.682Z,13.47
2023-05-12T00:04:05.720Z,13.47
2023-05-12T00:05:09.479Z,13.48
2023-05-12T00:06:12.470Z,13.49
2023-05-12T00:07:15.820Z,13.47
2023-05-12T00:08:18.031Z,13.48
2023-05-12T00:09:20.833Z,13.48
2023-05-12T00:10:22.786Z,13.47
2023-05-12T00:11:27.101Z,13.48
2023-05-12T00:12:29.248Z,13.47
2023-05-12T00:13:32.238Z,13.46
2023-05-12T00:14:35.046Z,13.46
2023-05-12T00:15:37.959Z,13.47
2023-05-12T00:16:39.804Z,13.46
2023-05-12T00:17:42.861Z,13.46
2023-05-12T00:18:45.007Z,13.47
2023-05-12T00:19:48.444Z,13.48
2023-05-12T00:20:50.344Z,13.47
2023-05-12T00:21:53.295Z,13.47
2023-05-12T00:22:55.810Z,13.46
2023-05-12T00:23:58.666Z,13.46
2023-05-12T00:25:00.517Z,13.46
2023-05-12T00:26:03.413Z,13.45
2023-05-12T00:27:07.445Z,13.44
2023-05-12T00:28:10.337Z,13.45
2023-05-12T00:29:12.232Z,13.46
2023-05-12T00:30:16.311Z,13.45
2023-05-12T00:31:18.414Z,13.46
2023-05-12T00:32:21.287Z,13.46
2023-05-12T00:33:23.144Z,13.46
2023-05-12T00:34:26.423Z,13.46
2023-05-12T00:35:28.428Z,13.46
2023-05-12T00:36:31.251Z,13.45
2023-05-12T00:37:33.108Z,13.46
2023-05-12T00:38:37.359Z,13.44
2023-05-12T00:39:39.300Z,13.44
2023-05-12T00:40:42.327Z,13.43
2023-05-12T00:41:44.711Z,13.44
2023-05-12T00:42:49.590Z,13.44
2023-05-12T00:43:51.523Z,13.43
2023-05-12T00:44:54.382Z,13.44
2023-05-12T00:45:57.005Z,13.44
2023-05-12T00:47:00.044Z,13.43
2023-05-12T00:48:02.621Z,13.42
2023-05-12T00:49:05.759Z,13.42
2023-05-12T00:50:08.746Z,13.43
2023-05-12T00:51:12.994Z,13.42
2023-05-12T00:52:14.886Z,13.43
2023-05-12T00:53:17.763Z,13.43
2023-05-12T00:54:20.596Z,13.43
2023-05-12T00:55:23.454Z,13.43
2023-05-12T00:56:25.838Z,13.43
2023-05-12T00:57:29.101Z,13.43
2023-05-12T00:58:32.418Z,13.42
2023-05-12T00:59:35.426Z,13.43
2023-05-12T01:00:37.430Z,13.43
2023-05-12T01:01:40.746Z,13.43
2023-05-12T01:02:43.101Z,13.42
2023-05-12T01:03:46.961Z,13.42
2023-05-12T01:04:49.797Z,13.41
2023-05-12T01:06:01.736Z,13.42
2023-05-12T01:07:09.868Z,13.42
2023-05-12T01:08:14.395Z,13.41
2023-05-12T01:09:18.091Z,13.41
2023-05-12T01:10:22.520Z,13.42
2023-05-12T01:11:25.361Z,13.41
2023-05-12T01:12:29.051Z,13.41
2023-05-12T01:13:32.550Z,13.41
2023-05-12T01:14:35.428Z,13.42
2023-05-12T01:15:40.370Z,13.42
2023-05-12T01:16:49.280Z,13.43
2023-05-12T01:17:56.276Z,13.41
2023-05-12T01:19:00.595Z,13.42
2023-05-12T01:20:04.989Z,13.42
2023-05-12T01:21:08.269Z,13.42
2023-05-12T01:22:12.287Z,13.41
2023-05-12T01:23:19.490Z,13.41
2023-05-12T01:24:26.839Z,13.42
2023-05-12T01:25:33.345Z,13.42
2023-05-12T01:26:38.668Z,13.42
2023-05-12T01:27:42.951Z,13.42
2023-05-12T01:28:46.282Z,13.42
2023-05-12T01:29:49.636Z,13.42
2023-05-12T01:30:53.337Z,13.42
2023-05-12T01:31:56.933Z,13.41
2023-05-12T01:33:00.124Z,13.42
2023-05-12T01:34:03.421Z,13.41
2023-05-12T01:35:07.468Z,13.41
2023-05-12T01:36:11.540Z,13.41
2023-05-12T01:37:14.481Z,13.40
2023-05-12T01:38:17.050Z,13.40
2023-05-12T01:39:20.161Z,13.39
2023-05-12T01:40:22.721Z,13.40
2023-05-12T01:41:26.109Z,13.41
2023-05-12T01:42:29.472Z,13.40
2023-05-12T01:43:32.580Z,13.40
2023-05-12T01:44:34.812Z,13.39
2023-05-12T01:45:38.633Z,13.40
2023-05-12T01:46:40.634Z,13.39
2023-05-12T01:47:43.773Z,13.39
2023-05-12T01:48:45.973Z,13.39
2023-05-12T01:49:49.663Z,13.38
2023-05-12T01:50:52.006Z,13.38
2023-05-12T01:51:57.401Z,13.38
2023-05-12T01:53:04.591Z,13.39
2023-05-12T01:54:09.171Z,13.38
2023-05-12T01:55:13.737Z,13.37
2023-05-12T01:56:32.091Z,13.37
2023-05-12T01:57:35.298Z,13.37
2023-05-12T01:58:38.605Z,13.36
2023-05-12T01:59:40.990Z,13.36
2023-05-12T02:00:44.058Z,13.37
2023-05-12T02:01:50.058Z,13.37
2023-05-12T02:02:59.169Z,13.38
2023-05-12T02:04:01.263Z,13.37
2023-05-12T02:05:06.343Z,13.37
2023-05-12T02:06:08.438Z,13.38
2023-05-12T02:07:12.245Z,13.38
2023-05-12T02:08:14.223Z,13.38
2023-05-12T02:09:17.122Z,13.38
2023-05-12T02:10:19.553Z,13.37
2023-05-12T02:11:22.880Z,13.38
2023-05-12T02:12:25.001Z,13.37
2023-05-12T02:13:29.304Z,13.37
2023-05-12T02:14:31.359Z,13.35
2023-05-12T02:15:34.344Z,13.36
2023-05-12T02:16:36.416Z,13.37
2023-05-12T02:17:39.674Z,13.36
2023-05-12T02:18:42.135Z,13.34
2023-05-12T02:19:45.045Z,13.34
2023-05-12T02:20:48.682Z,13.33
2023-05-12T02:21:51.634Z,13.35
2023-05-12T02:22:53.472Z,13.35
2023-05-12T02:23:56.339Z,13.35
2023-05-12T02:24:58.163Z,13.34
2023-05-12T02:26:01.170Z,13.34
2023-05-12T02:27:03.194Z,13.35
2023-05-12T02:28:10.716Z,13.35
2023-05-12T02:29:14.981Z,13.34
2023-05-12T02:30:18.303Z,13.34
2023-05-12T02:31:22.321Z,13.33
2023-05-12T02:32:28.058Z,13.34
2023-05-12T02:33:30.279Z,13.33
2023-05-12T02:34:33.560Z,13.34
2023-05-12T02:35:35.419Z,13.33
2023-05-12T02:36:38.327Z,13.33
2023-05-12T02:37:40.857Z,13.33
2023-05-12T02:38:44.162Z,13.33
2023-05-12T02:39:46.030Z,13.32
2023-05-12T02:40:48.999Z,13.32
2023-05-12T02:41:51.145Z,13.32
2023-05-12T02:42:54.059Z,13.33
2023-05-12T02:43:55.945Z,13.32
2023-05-12T02:45:00.212Z,13.32
2023-05-12T02:46:02.139Z,13.33
2023-05-12T02:47:05.734Z,13.32
2023-05-12T02:48:07.698Z,13.32
2023-05-12T02:49:10.540Z,13.31
2023-05-12T02:50:12.379Z,13.31
2023-05-12T02:51:15.473Z,13.31
2023-05-12T02:52:17.398Z,13.31
2023-05-12T02:53:20.502Z,13.31
2023-05-12T02:54:22.538Z,13.32
2023-05-12T02:55:25.546Z,13.31
2023-05-12T02:56:28.791Z,13.32
2023-05-12T02:57:33.871Z,13.31
2023-05-12T02:58:36.494Z,13.30
2023-05-12T02:59:39.347Z,13.32
2023-05-12T03:00:42.612Z,13.31
2023-05-12T03:01:45.520Z,13.31
2023-05-12T03:02:47.464Z,13.31
2023-05-12T03:03:50.512Z,13.31
2023-05-12T03:04:52.705Z,13.30
2023-05-12T03:05:56.301Z,13.30
2023-05-12T03:06:58.313Z,13.30
2023-05-12T03:08:02.138Z,13.31
2023-05-12T03:09:04.834Z,13.30
2023-05-12T03:10:09.804Z,13.30
2023-05-12T03:11:11.873Z,13.29
2023-05-12T03:12:15.194Z,13.29
2023-05-12T03:13:17.032Z,13.28
2023-05-12T03:14:20.579Z,13.29
2023-05-12T03:15:22.518Z,13.29
2023-05-12T03:16:26.792Z,13.29
2023-05-12T03:17:29.471Z,13.30
2023-05-12T03:18:32.667Z,13.28
2023-05-12T03:19:34.911Z,13.28
2023-05-12T03:20:37.765Z,13.29
2023-05-12T03:21:40.323Z,13.28
2023-05-12T03:22:43.270Z,13.29
2023-05-12T03:23:46.082Z,13.29
2023-05-12T03:24:48.976Z,13.30
2023-05-12T03:25:50.808Z,13.28
2023-05-12T03:26:55.137Z,13.29
2023-05-12T03:27:56.985Z,13.28
2023-05-12T03:29:00.001Z,13.28
2023-05-12T03:30:01.924Z,13.28
2023-05-12T03:31:06.200Z,13.28
2023-05-12T03:32:09.560Z,13.27
2023-05-12T03:33:13.112Z,13.28
2023-05-12T03:34:15.040Z,13.28
2023-05-12T03:35:17.864Z,13.28
2023-05-12T03:36:21.226Z,13.27
2023-05-12T03:37:23.076Z,13.27
2023-05-12T03:38:26.084Z,13.27
2023-05-12T03:39:28.014Z,13.27
2023-05-12T03:40:31.841Z,13.27
2023-05-12T03:41:33.726Z,13.27
2023-05-12T03:42:36.596Z,13.27
2023-05-12T03:43:38.649Z,13.27
2023-05-12T03:44:41.498Z,13.26
2023-05-12T03:45:43.824Z,13.27
2023-05-12T03:46:46.834Z,13.28
2023-05-12T03:47:52.127Z,13.27
2023-05-12T03:48:54.023Z,13.27
2023-05-12T03:49:57.452Z,13.28
2023-05-12T03:50:59.562Z,13.28
2023-05-12T03:52:04.253Z,13.28
2023-05-12T03:53:06.072Z,13.26
2023-05-12T03:54:10.919Z,13.27
2023-05-12T03:55:13.754Z,13.25
2023-05-12T03:56:18.908Z,13.27
2023-05-12T03:57:21.072Z,13.27
2023-05-12T03:58:24.202Z,13.26
2023-05-12T03:59:26.241Z,13.26
2023-05-12T04:00:29.252Z,13.26
2023-05-12T04:01:31.798Z,13.26
2023-05-12T04:02:37.416Z,13.25
2023-05-12T04:03:41.693Z,13.27
2023-05-12T04:04:45.392Z,13.26
2023-05-12T04:05:47.277Z,13.25
2023-05-12T04:06:51.355Z,13.26
2023-05-12T04:07:54.858Z,13.23
2023-05-12T04:08:56.723Z,13.25
2023-05-12T04:09:59.724Z,13.25
2023-05-12T04:11:02.346Z,13.23
2023-05-12T04:12:06.011Z,13.25
2023-05-12T04:13:08.201Z,13.25
2023-05-12T04:14:11.378Z,13.24
2023-05-12T04:15:15.168Z,13.25
2023-05-12T04:16:18.047Z,13.23
2023-05-12T04:17:19.986Z,13.25
2023-05-12T04:18:23.133Z,13.24
2023-05-12T04:19:26.407Z,13.23
2023-05-12T04:20:29.433Z,13.25
2023-05-12T04:21:31.415Z,13.22
2023-05-12T04:22:34.383Z,13.23
2023-05-12T04:23:36.568Z,13.24
2023-05-12T04:24:39.637Z,13.22
2023-05-12T04:25:42.945Z,13.24
2023-05-12T04:26:45.780Z,13.25
2023-05-12T04:27:47.730Z,13.23
2023-05-12T04:28:52.238Z,13.23
2023-05-12T04:29:54.257Z,13.24
2023-05-12T04:30:57.881Z,13.23
2023-05-12T04:32:00.134Z,13.23
2023-05-12T04:33:03.380Z,13.24
2023-05-12T04:34:05.607Z,13.23
2023-05-12T04:35:11.434Z,13.23
2023-05-12T04:36:14.146Z,13.22
2023-05-12T04:37:17.308Z,13.23
2023-05-12T04:38:19.907Z,13.23
2023-05-12T04:39:22.817Z,13.25
2023-05-12T04:40:24.708Z,13.23
2023-05-12T04:41:27.923Z,13.22
2023-05-12T04:42:30.106Z,13.22
2023-05-12T04:44:38.634Z,13.23
2023-05-12T04:45:42.239Z,13.23
2023-05-12T04:46:44.778Z,13.22
2023-05-12T04:47:47.776Z,13.22
2023-05-12T04:48:49.656Z,13.22
2023-05-12T04:49:52.528Z,13.22
2023-05-12T04:50:55.857Z,13.22
2023-05-12T04:51:58.747Z,13.22
2023-05-12T04:53:01.098Z,13.22
2023-05-12T04:54:04.087Z,13.22
2023-05-12T04:55:07.699Z,13.22
2023-05-12T04:56:10.611Z,13.22
2023-05-12T04:57:13.970Z,13.23
2023-05-12T04:58:17.300Z,13.23
2023-05-12T04:59:19.334Z,13.25
2023-05-12T05:00:24.604Z,13.24
2023-05-12T05:01:26.885Z,13.25
2023-05-12T05:02:29.996Z,13.25
2023-05-12T05:03:32.373Z,13.26
2023-05-12T05:04:35.691Z,13.27
2023-05-12T05:05:38.010Z,13.26
2023-05-12T05:06:42.465Z,13.25
2023-05-12T05:07:44.500Z,13.26
2023-05-12T05:08:47.988Z,13.26
2023-05-12T05:09:50.728Z,13.26
2023-05-12T05:10:54.168Z,13.25
2023-05-12T05:11:57.220Z,13.26
2023-05-12T05:12:59.340Z,13.25
2023-05-12T05:14:02.909Z,13.26
2023-05-12T05:15:06.266Z,13.24
2023-05-12T05:16:09.466Z,13.26
2023-05-12T05:17:12.855Z,13.25
2023-05-12T05:18:16.526Z,13.23
2023-05-12T05:19:23.301Z,13.29
2023-05-12T05:20:34.354Z,13.31
2023-05-12T05:21:36.416Z,13.31
2023-05-12T05:22:41.270Z,13.33
2023-05-12T05:23:43.284Z,13.32
2023-05-12T05:24:46.254Z,13.32
2023-05-12T05:25:48.228Z,13.32
2023-05-12T05:26:51.116Z,13.31
2023-05-12T05:27:53.278Z,13.30
2023-05-12T05:28:56.417Z,13.30
2023-05-12T05:30:00.179Z,13.30
2023-05-12T05:31:03.300Z,13.30
2023-05-12T05:32:05.891Z,13.30
2023-05-12T05:33:09.195Z,13.30
2023-05-12T05:34:11.221Z,13.30
2023-05-12T05:35:14.299Z,13.31
2023-05-12T05:36:22.511Z,13.32
2023-05-12T05:37:25.953Z,13.31
2023-05-12T05:38:31.322Z,13.31
2023-05-12T05:39:34.210Z,13.30
2023-05-12T05:40:49.304Z,13.31
2023-05-12T05:41:56.126Z,13.32
2023-05-12T05:42:59.066Z,13.31
2023-05-12T05:44:01.745Z,13.31
2023-05-12T05:45:06.142Z,13.31
2023-05-12T05:46:08.624Z,13.31
2023-05-12T05:47:11.921Z,13.31
2023-05-12T05:48:14.828Z,13.31
2023-05-12T05:49:17.885Z,13.31
2023-05-12T05:50:19.838Z,13.32
2023-05-12T05:51:22.682Z,13.32
2023-05-12T05:52:24.568Z,13.32
2023-05-12T05:53:27.893Z,13.32
2023-05-12T05:54:32.240Z,13.32
2023-05-12T05:55:35.693Z,13.33
2023-05-12T05:56:37.599Z,13.34
2023-05-12T05:57:40.478Z,13.34
2023-05-12T05:58:43.549Z,13.35
2023-05-12T05:59:45.773Z,13.35
2023-05-12T06:00:48.759Z,13.36
2023-05-12T06:01:50.753Z,13.37
2023-05-12T06:02:53.825Z,13.38
2023-05-12T06:03:57.760Z,13.39
2023-05-12T06:05:00.152Z,13.39
2023-05-12T06:06:03.188Z,13.41
2023-05-12T06:07:05.793Z,13.42
2023-05-12T06:08:11.053Z,13.42
2023-05-12T06:09:12.944Z,13.43
2023-05-12T06:10:17.362Z,13.43
2023-05-12T06:11:19.329Z,13.44
2023-05-12T06:12:22.444Z,13.46
2023-05-12T06:13:24.426Z,13.46
2023-05-12T06:14:27.232Z,13.47
2023-05-12T06:15:30.443Z,13.46
2023-05-12T06:16:33.696Z,13.46
2023-05-12T06:17:35.738Z,13.47
2023-05-12T06:18:38.689Z,13.47
2023-05-12T06:19:40.634Z,13.46
2023-05-12T06:20:43.521Z,13.46
2023-05-12T06:21:45.386Z,13.46
2023-05-12T06:22:48.965Z,13.47
2023-05-12T06:23:52.150Z,13.46
2023-05-12T06:24:54.977Z,13.47
2023-05-12T06:25:58.181Z,13.48
2023-05-12T06:27:04.030Z,13.48
2023-05-12T06:28:05.963Z,13.48
2023-05-12T06:29:08.864Z,13.48
2023-05-12T06:30:14.954Z,13.48
2023-05-12T06:31:17.950Z,13.49
2023-05-12T06:32:23.691Z,13.51
2023-05-12T06:33:25.817Z,13.52
2023-05-12T06:34:29.657Z,13.52
2023-05-12T06:35:33.401Z,13.53
2023-05-12T06:36:36.303Z,13.54
2023-05-12T06:37:38.625Z,13.56
2023-05-12T06:38:41.509Z,13.58
2023-05-12T06:39:43.650Z,13.59
2023-05-12T06:40:47.178Z,13.59
2023-05-12T06:41:50.356Z,13.61
2023-05-12T06:42:57.340Z,13.62
2023-05-12T06:44:02.371Z,13.62
2023-05-12T06:45:06.439Z,13.63
2023-05-12T06:46:08.638Z,13.66
2023-05-12T06:47:11.592Z,13.65
2023-05-12T06:48:13.685Z,13.66
2023-05-12T06:49:16.602Z,13.66
2023-05-12T06:50:18.627Z,13.64
2023-05-12T06:51:21.735Z,13.64
2023-05-12T06:52:23.957Z,13.64
2023-05-12T06:53:27.354Z,13.66
2023-05-12T06:54:30.240Z,13.66
2023-05-12T06:55:34.165Z,13.64
2023-05-12T06:56:37.108Z,13.66
2023-05-12T06:57:41.428Z,13.66
2023-05-12T06:58:44.267Z,13.68
2023-05-12T06:59:46.471Z,13.67
2023-05-12T07:00:49.399Z,13.68
2023-05-12T07:01:51.389Z,13.69
2023-05-12T07:02:54.405Z,13.70
2023-05-12T07:03:56.459Z,13.71
2023-05-12T07:04:59.375Z,13.70
2023-05-12T07:06:01.238Z,13.71
2023-05-12T07:07:04.356Z,13.71
2023-05-12T07:08:07.614Z,13.71
2023-05-12T07:09:09.498Z,13.71
2023-05-12T07:10:12.746Z,13.71
2023-05-12T07:11:19.945Z,13.70
2023-05-12T07:12:21.976Z,13.69
2023-05-12T07:13:26.205Z,13.70
2023-05-12T07:14:28.151Z,13.70
2023-05-12T07:15:32.763Z,13.70
2023-05-12T07:16:36.114Z,13.70
2023-05-12T07:17:38.275Z,13.69
2023-05-12T07:18:41.294Z,13.70
2023-05-12T07:19:43.666Z,13.70
2023-05-12T07:20:46.974Z,13.69
2023-05-12T07:21:49.899Z,13.69
2023-05-12T07:22:52.453Z,13.68
2023-05-12T07:23:55.426Z,13.67
2023-05-12T07:24:57.328Z,13.67
2023-05-12T07:26:00.258Z,13.69
2023-05-12T07:27:02.655Z,13.67
2023-05-12T07:28:05.867Z,13.67
2023-05-12T07:29:13.436Z,13.68
2023-05-12T07:30:17.215Z,13.67
2023-05-12T07:31:19.197Z,13.64
2023-05-12T07:32:22.122Z,13.63
2023-05-12T07:33:24.039Z,13.64
2023-05-12T07:34:27.051Z,13.64
2023-05-12T07:35:28.990Z,13.65
2023-05-12T07:36:31.871Z,13.67
2023-05-12T07:37:33.804Z,13.68
2023-05-12T07:38:37.040Z,13.68
2023-05-12T07:39:38.944Z,13.70
2023-05-12T07:40:41.796Z,13.71
2023-05-12T07:41:43.708Z,13.72
2023-05-12T07:42:46.610Z,13.72
2023-05-12T07:43:48.539Z,13.72
2023-05-12T07:44:52.778Z,13.72
2023-05-12T07:45:56.232Z,13.73
2023-05-12T07:46:59.110Z,13.74
2023-05-12T07:48:02.115Z,13.74
2023-05-12T07:49:04.304Z,13.75
2023-05-12T07:50:08.383Z,13.75
2023-05-12T07:51:10.366Z,13.75
2023-05-12T07:52:13.252Z,13.77
2023-05-12T07:53:16.123Z,13.77
2023-05-12T07:54:18.151Z,13.77
2023-05-12T07:55:23.069Z,13.77
2023-05-12T07:56:25.197Z,13.78
2023-05-12T07:57:28.142Z,13.79
2023-05-12T07:58:31.074Z,13.80
2023-05-12T07:59:33.968Z,13.79
2023-05-12T08:00:37.248Z,13.80
2023-05-12T08:01:40.159Z,13.79
2023-05-12T08:02:42.931Z,13.80
2023-05-12T08:03:46.113Z,13.80
2023-05-12T08:04:48.250Z,13.80
2023-05-12T08:05:51.164Z,13.81
2023-05-12T08:06:53.049Z,13.81
2023-05-12T08:07:55.970Z,13.80
2023-05-12T08:08:58.427Z,13.79
2023-05-12T08:10:01.425Z,13.79
2023-05-12T08:11:04.357Z,13.77
2023-05-12T08:12:06.531Z,13.77
2023-05-12T08:13:09.646Z,13.76
2023-05-12T08:14:11.568Z,13.76
2023-05-12T08:15:15.114Z,13.76
2023-05-12T08:16:18.517Z,13.75
2023-05-12T08:17:22.247Z,13.74
2023-05-12T08:18:25.309Z,13.74
2023-05-12T08:19:27.236Z,13.74
2023-05-12T08:20:30.290Z,13.73
2023-05-12T08:21:33.148Z,13.74
2023-05-12T08:22:36.007Z,13.76
2023-05-12T08:23:38.148Z,13.77
2023-05-12T08:24:41.238Z,13.78
2023-05-12T08:25:44.489Z,13.80
2023-05-12T08:26:46.504Z,13.81
2023-05-12T08:27:49.395Z,13.82
2023-05-12T08:28:52.246Z,13.83
2023-05-12T08:29:54.108Z,13.83
2023-05-12T08:30:57.317Z,13.81
2023-05-12T08:32:01.091Z,13.79
2023-05-12T08:33:04.549Z,13.83
2023-05-12T08:35:12.351Z,13.84
2023-05-12T08:36:15.122Z,13.83
2023-05-12T08:37:17.074Z,13.85
2023-05-12T08:38:20.135Z,13.84
2023-05-12T08:39:22.474Z,13.84
2023-05-12T08:40:26.413Z,13.85
2023-05-12T08:41:41.974Z,13.85
2023-05-12T08:42:49.245Z,13.84
2023-05-12T08:43:52.686Z,13.84
2023-05-12T08:44:55.824Z,13.84
2023-05-12T08:45:58.565Z,13.84
2023-05-12T08:47:04.933Z,13.85
2023-05-12T08:48:10.129Z,13.83
2023-05-12T08:49:18.036Z,13.85
2023-05-12T08:50:23.826Z,13.83
2023-05-12T08:51:28.063Z,13.83
2023-05-12T08:52:33.248Z,13.83
2023-05-12T08:53:36.691Z,13.82
2023-05-12T08:54:52.388Z,13.82
2023-05-12T08:57:27.404Z,13.80
2023-05-12T08:58:40.811Z,13.79
2023-05-12T08:59:45.483Z,13.79
2023-05-12T09:00:47.835Z,13.79
2023-05-12T09:01:51.249Z,13.76
2023-05-12T09:02:55.771Z,13.77
2023-05-12T09:03:58.879Z,13.77
2023-05-12T09:05:01.763Z,13.77
2023-05-12T09:06:06.193Z,13.77
2023-05-12T09:07:09.713Z,13.78
2023-05-12T09:08:12.384Z,13.79
2023-05-12T09:09:17.560Z,13.79
2023-05-12T09:10:34.238Z,13.78
2023-05-12T09:11:37.791Z,13.79
2023-05-12T09:12:39.747Z,13.79
2023-05-12T09:13:49.663Z,13.80
2023-05-12T09:14:59.279Z,13.80
2023-05-12T09:16:04.056Z,13.81
2023-05-12T09:17:07.234Z,13.81
2023-05-12T09:18:11.696Z,13.82
2023-05-12T09:19:14.665Z,13.82
2023-05-12T09:20:27.879Z,13.82
2023-05-12T09:21:34.635Z,13.81
2023-05-12T09:22:38.418Z,13.81
2023-05-12T09:23:43.165Z,13.80
2023-05-12T09:24:46.102Z,13.79
2023-05-12T09:25:59.403Z,13.79
2023-05-12T09:27:02.329Z,13.79
2023-05-12T09:28:04.409Z,13.79
2023-05-12T09:29:08.809Z,13.79
2023-05-12T09:30:11.703Z,13.77
2023-05-12T09:31:16.801Z,13.79
2023-05-12T09:32:18.796Z,13.79
2023-05-12T09:33:22.999Z,13.77
2023-05-12T09:34:29.065Z,13.77
2023-05-12T09:35:30.933Z,13.77
2023-05-12T09:36:35.863Z,13.77
2023-05-12T09:37:38.709Z,13.77
2023-05-12T09:38:41.888Z,13.77
2023-05-12T09:39:44.567Z,13.75
2023-05-12T09:40:47.452Z,13.72
2023-05-12T09:41:49.341Z,13.73
2023-05-12T09:42:52.573Z,13.73
2023-05-12T09:43:56.184Z,13.73
2023-05-12T09:45:03.906Z,13.74
2023-05-12T09:46:06.416Z,13.75
2023-05-12T09:47:10.540Z,13.74
2023-05-12T09:48:14.028Z,13.74
2023-05-12T09:49:22.363Z,13.74
2023-05-12T09:50:24.296Z,13.75
2023-05-12T09:51:28.262Z,13.75
2023-05-12T09:52:32.889Z,13.75
2023-05-12T09:53:44.415Z,13.77
2023-05-12T09:54:47.885Z,13.77
2023-05-12T09:55:50.752Z,13.80
2023-05-12T09:56:53.190Z,13.78
2023-05-12T09:57:57.550Z,13.80
2023-05-12T09:59:04.642Z,13.80
2023-05-12T10:00:16.987Z,13.79
2023-05-12T10:01:26.053Z,13.80
2023-05-12T10:02:28.473Z,13.82
2023-05-12T10:03:33.400Z,13.82
2023-05-12T10:04:45.548Z,13.84
2023-05-12T10:05:50.002Z,13.83
2023-05-12T10:06:53.572Z,13.83
2023-05-12T10:08:00.367Z,13.84
2023-05-12T10:09:10.285Z,13.85
2023-05-12T10:10:17.419Z,13.87
2023-05-12T10:11:21.405Z,13.87
2023-05-12T10:12:24.712Z,13.88
2023-05-12T10:13:27.199Z,13.89
2023-05-12T10:14:30.321Z,13.88
2023-05-12T10:15:34.112Z,13.90
2023-05-12T10:16:37.533Z,13.91
2023-05-12T10:17:42.364Z,13.91
2023-05-12T10:18:44.636Z,13.92
2023-05-12T10:19:50.948Z,13.93
2023-05-12T10:20:53.733Z,13.95
2023-05-12T10:21:58.344Z,13.95
2023-05-12T10:23:02.131Z,13.95
2023-05-12T10:24:05.449Z,13.96
2023-05-12T10:25:08.910Z,13.98
2023-05-12T10:26:12.458Z,13.97
2023-05-12T10:27:17.127Z,13.98
2023-05-12T10:28:20.260Z,13.98
2023-05-12T10:29:29.425Z,13.97
2023-05-12T10:30:31.813Z,13.99
2023-05-12T10:31:36.239Z,13.99
2023-05-12T10:32:38.294Z,14.00
2023-05-12T10:33:41.239Z,13.99
2023-05-12T10:34:44.247Z,13.99
2023-05-12T10:35:49.659Z,14.00
2023-05-12T10:36:54.446Z,14.01
2023-05-12T10:37:56.294Z,14.02
2023-05-12T10:39:06.144Z,14.02
2023-05-12T10:40:11.130Z,14.02
2023-05-12T10:41:13.773Z,14.04
2023-05-12T10:42:18.693Z,14.04
2023-05-12T10:43:24.351Z,14.05
2023-05-12T10:44:28.778Z,14.05
2023-05-12T10:45:36.152Z,14.05
2023-05-12T10:46:39.347Z,14.06
2023-05-12T10:47:43.290Z,14.06
2023-05-12T10:48:54.878Z,14.07
2023-05-12T10:49:58.534Z,14.09
2023-05-12T10:51:09.712Z,14.10
2023-05-12T10:52:13.680Z,14.10
2023-05-12T10:53:15.544Z,14.11
2023-05-12T10:54:22.925Z,14.12
2023-05-12T10:55:31.809Z,14.10
2023-05-12T10:56:45.061Z,14.11
2023-05-12T10:57:50.865Z,14.10
2023-05-12T10:59:13.542Z,14.11
2023-05-12T11:00:17.560Z,14.11
2023-05-12T11:01:25.310Z,14.11
2023-05-12T11:02:32.355Z,14.09
2023-05-12T11:03:37.003Z,14.10
2023-05-12T11:04:43.193Z,14.10
2023-05-12T11:05:47.474Z,14.09
2023-05-12T11:06:59.720Z,14.07
2023-05-12T11:08:03.278Z,14.06
2023-05-12T11:09:08.874Z,14.06
2023-05-12T11:10:13.293Z,14.06
2023-05-12T11:11:18.666Z,14.05
2023-05-12T11:12:22.406Z,14.05
2023-05-12T11:13:26.017Z,14.04
2023-05-12T11:14:28.151Z,14.04
2023-05-12T11:15:31.364Z,14.04
2023-05-12T11:16:33.334Z,14.04
2023-05-12T11:17:43.071Z,14.04
2023-05-12T11:18:45.114Z,14.05
2023-05-12T11:19:50.039Z,14.05
2023-05-12T11:20:51.998Z,14.05
2023-05-12T11:21:56.764Z,14.04
2023-05-12T11:22:58.663Z,14.03
2023-05-12T11:24:03.025Z,14.01
2023-05-12T11:25:11.429Z,14.03
2023-05-12T11:26:18.517Z,14.03
2023-05-12T11:27:23.902Z,14.02
2023-05-12T11:28:27.119Z,14.03
2023-05-12T11:29:29.058Z,14.02
2023-05-12T11:30:32.451Z,14.01
2023-05-12T11:31:34.421Z,14.03
2023-05-12T11:32:37.358Z,14.03
2023-05-12T11:33:39.323Z,14.04
2023-05-12T11:34:42.162Z,14.04
2023-05-12T11:35:43.965Z,14.04
2023-05-12T11:36:47.288Z,14.04
2023-05-12T11:37:51.555Z,14.04
2023-05-12T11:38:55.152Z,14.04
2023-05-12T11:39:58.045Z,14.04
2023-05-12T11:41:01.003Z,14.04
2023-05-12T11:42:12.722Z,14.04
2023-05-12T11:43:21.599Z,14.04
2023-05-12T11:44:25.162Z,14.04
2023-05-12T11:45:29.883Z,14.05
2023-05-12T11:46:32.023Z,14.05
2023-05-12T11:47:34.945Z,14.05
2023-05-12T11:48:37.899Z,14.06
2023-05-12T11:49:46.911Z,14.05
2023-05-12T11:50:51.616Z,14.06
2023-05-12T11:51:54.539Z,14.06
2023-05-12T11:52:58.800Z,14.07
2023-05-12T11:54:00.859Z,14.06
2023-05-12T11:55:06.069Z,14.07
2023-05-12T11:56:09.250Z,14.06
2023-05-12T11:57:11.187Z,14.09
2023-05-12T11:58:20.752Z,14.09
2023-05-12T11:59:30.804Z,14.08
2023-05-12T12:00:34.289Z,14.10
2023-05-12T12:01:46.283Z,14.09
2023-05-12T12:02:48.500Z,14.10
2023-05-12T12:03:54.856Z,14.09
2023-05-12T12:04:57.284Z,14.09
2023-05-12T12:06:02.234Z,14.10
2023-05-12T12:07:05.452Z,14.10
2023-05-12T12:08:12.559Z,14.10
2023-05-12T12:09:15.496Z,14.11
2023-05-12T12:10:18.697Z,14.11
2023-05-12T12:11:22.919Z,14.12
2023-05-12T12:12:26.064Z,14.11
2023-05-12T12:13:29.006Z,14.12
2023-05-12T12:14:32.954Z,14.13
2023-05-12T12:15:34.821Z,14.14
2023-05-12T12:16:38.203Z,14.14
2023-05-12T12:17:40.610Z,14.15
2023-05-12T12:18:43.809Z,14.14
2023-05-12T12:19:47.805Z,14.14
2023-05-12T12:20:50.811Z,14.14
2023-05-12T12:21:52.963Z,14.14
2023-05-12T12:22:56.236Z,14.14
2023-05-12T12:23:59.628Z,14.13
2023-05-12T12:25:02.708Z,14.12
2023-05-12T12:26:05.782Z,14.12
2023-05-12T12:27:07.762Z,14.12
2023-05-12T12:28:13.482Z,14.12
2023-05-12T12:29:15.422Z,14.11
2023-05-12T12:30:18.522Z,14.11
2023-05-12T12:31:21.503Z,14.12
2023-05-12T12:32:23.512Z,14.12
2023-05-12T12:33:26.811Z,14.13
2023-05-12T12:34:28.785Z,14.15
2023-05-12T12:35:31.789Z,14.16
2023-05-12T12:36:33.741Z,14.17
2023-05-12T12:37:37.622Z,14.17
2023-05-12T12:38:41.030Z,14.17
2023-05-12T12:39:44.507Z,14.18
2023-05-12T12:40:47.873Z,14.18
2023-05-12T12:41:50.250Z,14.19
2023-05-12T12:42:53.475Z,14.18
2023-05-12T12:43:55.548Z,14.19
2023-05-12T12:44:58.528Z,14.17
2023-05-12T12:46:01.458Z,14.19
2023-05-12T12:47:04.262Z,14.19
2023-05-12T12:48:09.163Z,14.18
2023-05-12T12:49:12.400Z,14.17
2023-05-12T12:50:14.359Z,14.17
2023-05-12T12:51:17.259Z,14.18
2023-05-12T12:52:19.222Z,14.19
2023-05-12T12:53:22.982Z,14.20
2023-05-12T12:54:27.358Z,14.21
2023-05-12T12:55:32.113Z,14.20
2023-05-12T12:56:34.036Z,14.20
2023-05-12T12:57:36.993Z,14.20
2023-05-12T12:58:39.029Z,14.18
2023-05-12T12:59:41.988Z,14.18
2023-05-12T13:00:44.983Z,14.17
2023-05-12T13:01:47.036Z,14.17
2023-05-12T13:02:50.685Z,14.18
2023-05-12T13:03:52.721Z,14.17
2023-05-12T13:04:55.769Z,14.26
2023-05-12T13:05:58.981Z,14.36
2023-05-12T13:07:00.977Z,14.41
2023-05-12T13:08:03.855Z,14.42
2023-05-12T13:09:06.748Z,14.42
2023-05-12T13:10:09.536Z,14.42
2023-05-12T13:11:13.912Z,14.41
2023-05-12T13:12:15.957Z,14.39
2023-05-12T13:13:18.917Z,14.37
2023-05-12T13:14:21.598Z,14.36
2023-05-12T13:15:24.743Z,14.35
2023-05-12T13:16:27.151Z,14.34
2023-05-12T13:17:30.260Z,14.34
2023-05-12T13:18:32.234Z,14.33
2023-05-12T13:19:37.832Z,14.31
2023-05-12T13:20:40.351Z,14.32
2023-05-12T13:21:43.353Z,14.29
2023-05-12T13:22:45.488Z,14.26
2023-05-12T13:23:48.334Z,14.25
2023-05-12T13:24:50.468Z,14.25
2023-05-12T13:25:53.468Z,14.24
2023-05-12T13:26:57.529Z,14.23
2023-05-12T13:28:00.375Z,14.23
2023-05-12T13:29:02.406Z,14.22
2023-05-12T13:30:07.181Z,14.19
2023-05-12T13:31:09.142Z,14.19
2023-05-12T13:32:12.005Z,14.19
2023-05-12T13:33:13.948Z,14.20
2023-05-12T13:34:16.877Z,14.20
2023-05-12T13:35:19.027Z,14.19
2023-05-12T13:36:22.143Z,14.19
2023-05-12T13:37:25.147Z,14.19
2023-05-12T13:38:27.082Z,14.15
2023-05-12T13:39:29.920Z,14.19
2023-05-12T13:40:31.807Z,14.19
2023-05-12T13:41:34.726Z,14.18
2023-05-12T13:42:38.948Z,14.19
2023-05-12T13:43:41.857Z,14.18